sensor_id;sensor_type;location;lat;lon;timestamp;pressure;altitude;pressure_sealevel;temperature;humidity
68117;BME280;54909;54.464;18.498;2023-12-20T00:01:53;100300;;;7.02;96
68117;BME280;54909;54.464;18.498;2023-12-20T00:04:59;100300;;;7.13;96
68117;BME280;54909;54.464;18.498;2023-12-20T00:08:01;100300;;;7.13;96
68117;BME280;54909;54.464;18.498;2023-12-20T00:11:03;100300;;;7.19;96
68117;BME280;54909;54.464;18.498;2023-12-20T00:14:08;100300;;;7.19;96
68117;BME280;54909;54.464;18.498;2023-12-20T00:17:10;100300;;;7.18;95
68117;BME280;54909;54.464;18.498;2023-12-20T00:20:11;100300;;;7.05;95
68117;BME280;54909;54.464;18.498;2023-12-20T00:23:17;100300;;;6.84;95
68117;BME280;54909;54.464;18.498;2023-12-20T00:26:19;100300;;;6.71;95
68117;BME280;54909;54.464;18.498;2023-12-20T00:29:20;100300;;;6.71;95
68117;BME280;54909;54.464;18.498;2023-12-20T00:32:26;100300;;;6.57;95
68117;BME280;54909;54.464;18.498;2023-12-20T00:35:28;100300;;;6.67;95
68117;BME280;54909;54.464;18.498;2023-12-20T00:38:29;100300;;;6.57;94
68117;BME280;54909;54.464;18.498;2023-12-20T00:41:36;100300;;;6.53;94
68117;BME280;54909;54.464;18.498;2023-12-20T00:44:37;100300;;;6.46;93
68117;BME280;54909;54.464;18.498;2023-12-20T00:47:39;100300;;;6.27;94
68117;BME280;54909;54.464;18.498;2023-12-20T00:50:45;100300;;;6.38;94
68117;BME280;54909;54.464;18.498;2023-12-20T00:53:46;100300;;;6.47;94
68117;BME280;54909;54.464;18.498;2023-12-20T00:56:50;100300;;;6.46;94
68117;BME280;54909;54.464;18.498;2023-12-20T00:59:54;100300;;;6.51;94
68117;BME280;54909;54.464;18.498;2023-12-20T01:02:55;100300;;;6.42;94
68117;BME280;54909;54.464;18.498;2023-12-20T01:05:56;100300;;;6.23;94
68117;BME280;54909;54.464;18.498;2023-12-20T01:09:03;100300;;;6.11;91
68117;BME280;54909;54.464;18.498;2023-12-20T01:12:04;100300;;;5.97;91
68117;BME280;54909;54.464;18.498;2023-12-20T01:15:06;100300;;;5.76;91
68117;BME280;54909;54.464;18.498;2023-12-20T01:18:12;100300;;;5.40;92
68117;BME280;54909;54.464;18.498;2023-12-20T01:21:13;100300;;;5.32;92
68117;BME280;54909;54.464;18.498;2023-12-20T01:24:14;100300;;;5.16;92
68117;BME280;54909;54.464;18.498;2023-12-20T01:27:21;100300;;;5.18;92
68117;BME280;54909;54.464;18.498;2023-12-20T01:30:22;100300;;;5.17;93
68117;BME280;54909;54.464;18.498;2023-12-20T01:33:23;100300;;;5.14;93
68117;BME280;54909;54.464;18.498;2023-12-20T01:36:30;100300;;;4.87;93
68117;BME280;54909;54.464;18.498;2023-12-20T01:39:31;100300;;;4.78;94
68117;BME280;54909;54.464;18.498;2023-12-20T01:42:32;100300;;;4.77;93
68117;BME280;54909;54.464;18.498;2023-12-20T01:45:39;100300;;;4.68;94
68117;BME280;54909;54.464;18.498;2023-12-20T01:48:41;100300;;;4.83;94
68117;BME280;54909;54.464;18.498;2023-12-20T01:51:43;100300;;;4.73;93
68117;BME280;54909;54.464;18.498;2023-12-20T01:54:48;100300;;;4.73;93
68117;BME280;54909;54.464;18.498;2023-12-20T01:57:50;100300;;;4.68;94
68117;BME280;54909;54.464;18.498;2023-12-20T02:00:52;100300;;;4.52;94
68117;BME280;54909;54.464;18.498;2023-12-20T02:03:58;100300;;;4.55;94
68117;BME280;54909;54.464;18.498;2023-12-20T02:07:01;100300;;;4.49;94
68117;BME280;54909;54.464;18.498;2023-12-20T02:10:04;100300;;;4.60;94
68117;BME280;54909;54.464;18.498;2023-12-20T02:13:07;100300;;;4.49;94
68117;BME280;54909;54.464;18.498;2023-12-20T02:16:08;100300;;;4.56;94
68117;BME280;54909;54.464;18.498;2023-12-20T02:19:13;100300;;;4.59;94
68117;BME280;54909;54.464;18.498;2023-12-20T02:22:16;100300;;;4.45;94
68117;BME280;54909;54.464;18.498;2023-12-20T02:25:17;100300;;;4.40;94
68117;BME280;54909;54.464;18.498;2023-12-20T02:28:18;100300;;;4.52;94
68117;BME280;54909;54.464;18.498;2023-12-20T02:31:25;100300;;;4.60;93
68117;BME280;54909;54.464;18.498;2023-12-20T02:34:27;100300;;;4.59;93
68117;BME280;54909;54.464;18.498;2023-12-20T02:37:28;100300;;;4.60;93
68117;BME280;54909;54.464;18.498;2023-12-20T02:40:34;100300;;;4.68;93
68117;BME280;54909;54.464;18.498;2023-12-20T02:43:36;100300;;;4.71;93
68117;BME280;54909;54.464;18.498;2023-12-20T02:46:37;100300;;;4.66;93
68117;BME280;54909;54.464;18.498;2023-12-20T02:49:44;100300;;;4.85;92
68117;BME280;54909;54.464;18.498;2023-12-20T02:52:45;100300;;;4.76;92
68117;BME280;54909;54.464;18.498;2023-12-20T02:55:47;100300;;;4.65;93
68117;BME280;54909;54.464;18.498;2023-12-20T02:58:53;100300;;;4.63;93
68117;BME280;54909;54.464;18.498;2023-12-20T03:01:54;100300;;;4.51;93
68117;BME280;54909;54.464;18.498;2023-12-20T03:04:55;100300;;;4.54;94
68117;BME280;54909;54.464;18.498;2023-12-20T03:08:02;100300;;;4.58;93
68117;BME280;54909;54.464;18.498;2023-12-20T03:11:03;100200;;;4.58;93
68117;BME280;54909;54.464;18.498;2023-12-20T03:14:04;100200;;;4.61;93
68117;BME280;54909;54.464;18.498;2023-12-20T03:17:11;100200;;;4.72;92
68117;BME280;54909;54.464;18.498;2023-12-20T03:20:12;100300;;;4.67;92
68117;BME280;54909;54.464;18.498;2023-12-20T03:23:14;100200;;;4.61;92
68117;BME280;54909;54.464;18.498;2023-12-20T03:26:20;100200;;;4.59;93
68117;BME280;54909;54.464;18.498;2023-12-20T03:29:23;100200;;;4.63;93
68117;BME280;54909;54.464;18.498;2023-12-20T03:32:24;100200;;;4.55;92
68117;BME280;54909;54.464;18.498;2023-12-20T03:35:29;100200;;;4.61;93
68117;BME280;54909;54.464;18.498;2023-12-20T03:38:31;100200;;;4.54;92
68117;BME280;54909;54.464;18.498;2023-12-20T03:41:32;100200;;;4.48;93
68117;BME280;54909;54.464;18.498;2023-12-20T03:44:39;100300;;;4.43;93
68117;BME280;54909;54.464;18.498;2023-12-20T03:47:43;100200;;;4.44;93
68117;BME280;54909;54.464;18.498;2023-12-20T03:50:44;100200;;;4.38;93
68117;BME280;54909;54.464;18.498;2023-12-20T03:53:48;100200;;;4.34;93
68117;BME280;54909;54.464;18.498;2023-12-20T03:56:49;100200;;;4.22;93
68117;BME280;54909;54.464;18.498;2023-12-20T03:59:51;100200;;;4.19;94
68117;BME280;54909;54.464;18.498;2023-12-20T04:02:57;100200;;;4.08;94
68117;BME280;54909;54.464;18.498;2023-12-20T04:05:58;100200;;;4.05;94
68117;BME280;54909;54.464;18.498;2023-12-20T04:08:59;100200;;;4.06;94
68117;BME280;54909;54.464;18.498;2023-12-20T04:12:07;100200;;;3.97;94
68117;BME280;54909;54.464;18.498;2023-12-20T04:15:08;100200;;;3.95;94
68117;BME280;54909;54.464;18.498;2023-12-20T04:18:12;100200;;;3.94;94
68117;BME280;54909;54.464;18.498;2023-12-20T04:21:15;100200;;;3.95;94
68117;BME280;54909;54.464;18.498;2023-12-20T04:24:17;100200;;;3.93;94
68117;BME280;54909;54.464;18.498;2023-12-20T04:27:18;100300;;;3.85;94
68117;BME280;54909;54.464;18.498;2023-12-20T04:30:25;100200;;;3.81;94
68117;BME280;54909;54.464;18.498;2023-12-20T04:33:26;100300;;;3.74;94
68117;BME280;54909;54.464;18.498;2023-12-20T04:36:27;100300;;;3.74;94
68117;BME280;54909;54.464;18.498;2023-12-20T04:39:34;100300;;;3.68;94
68117;BME280;54909;54.464;18.498;2023-12-20T04:42:36;100300;;;3.63;95
68117;BME280;54909;54.464;18.498;2023-12-20T04:45:37;100300;;;3.62;94
68117;BME280;54909;54.464;18.498;2023-12-20T04:48:43;100300;;;3.61;94
68117;BME280;54909;54.464;18.498;2023-12-20T04:51:45;100200;;;3.55;95
68117;BME280;54909;54.464;18.498;2023-12-20T04:54:46;100300;;;3.60;95
68117;BME280;54909;54.464;18.498;2023-12-20T04:57:53;100300;;;3.57;94
68117;BME280;54909;54.464;18.498;2023-12-20T05:00:55;100300;;;3.64;94
68117;BME280;54909;54.464;18.498;2023-12-20T05:03:56;100200;;;3.56;94
68117;BME280;54909;54.464;18.498;2023-12-20T05:07:02;100200;;;3.49;94
68117;BME280;54909;54.464;18.498;2023-12-20T05:10:06;100200;;;3.55;94
68117;BME280;54909;54.464;18.498;2023-12-20T05:13:09;100200;;;3.42;94
68117;BME280;54909;54.464;18.498;2023-12-20T05:16:11;100200;;;3.49;94
68117;BME280;54909;54.464;18.498;2023-12-20T05:19:15;100300;;;3.48;94
68117;BME280;54909;54.464;18.498;2023-12-20T05:22:16;100300;;;3.67;94
68117;BME280;54909;54.464;18.498;2023-12-20T05:25:20;100300;;;3.58;94
68117;BME280;54909;54.464;18.498;2023-12-20T05:28:22;100300;;;3.56;93
68117;BME280;54909;54.464;18.498;2023-12-20T05:31:23;100300;;;3.53;93
68117;BME280;54909;54.464;18.498;2023-12-20T05:34:30;100200;;;3.50;93
68117;BME280;54909;54.464;18.498;2023-12-20T05:37:31;100200;;;3.48;93
68117;BME280;54909;54.464;18.498;2023-12-20T05:40:33;100200;;;3.47;93
68117;BME280;54909;54.464;18.498;2023-12-20T05:43:39;100200;;;3.40;93
68117;BME280;54909;54.464;18.498;2023-12-20T05:46:40;100200;;;3.42;93
68117;BME280;54909;54.464;18.498;2023-12-20T05:49:43;100200;;;3.41;94
68117;BME280;54909;54.464;18.498;2023-12-20T05:52:49;100200;;;3.45;94
68117;BME280;54909;54.464;18.498;2023-12-20T05:55:51;100200;;;3.37;93
68117;BME280;54909;54.464;18.498;2023-12-20T05:58:52;100200;;;3.33;94
68117;BME280;54909;54.464;18.498;2023-12-20T06:01:58;100200;;;3.26;93
68117;BME280;54909;54.464;18.498;2023-12-20T06:04:59;100200;;;3.26;94
68117;BME280;54909;54.464;18.498;2023-12-20T06:08:01;100200;;;3.21;93
68117;BME280;54909;54.464;18.498;2023-12-20T06:11:07;100200;;;3.28;94
68117;BME280;54909;54.464;18.498;2023-12-20T06:14:08;100200;;;3.30;93
68117;BME280;54909;54.464;18.498;2023-12-20T06:17:10;100200;;;3.31;94
68117;BME280;54909;54.464;18.498;2023-12-20T06:20:17;100200;;;3.32;93
68117;BME280;54909;54.464;18.498;2023-12-20T06:23:18;100200;;;3.28;93
68117;BME280;54909;54.464;18.498;2023-12-20T06:26:19;100200;;;3.29;93
68117;BME280;54909;54.464;18.498;2023-12-20T06:29:27;100200;;;3.36;93
68117;BME280;54909;54.464;18.498;2023-12-20T06:32:29;100200;;;3.40;93
68117;BME280;54909;54.464;18.498;2023-12-20T06:35:31;100200;;;3.40;93
68117;BME280;54909;54.464;18.498;2023-12-20T06:38:35;100200;;;3.43;93
68117;BME280;54909;54.464;18.498;2023-12-20T06:41:36;100200;;;3.31;93
68117;BME280;54909;54.464;18.498;2023-12-20T06:44:38;100200;;;3.18;93
68117;BME280;54909;54.464;18.498;2023-12-20T06:47:44;100200;;;3.14;93
68117;BME280;54909;54.464;18.498;2023-12-20T06:50:46;100200;;;3.06;93
68117;BME280;54909;54.464;18.498;2023-12-20T06:53:47;100200;;;2.98;93
68117;BME280;54909;54.464;18.498;2023-12-20T06:56:54;100200;;;2.90;94
68117;BME280;54909;54.464;18.498;2023-12-20T06:59:55;100200;;;2.83;94
68117;BME280;54909;54.464;18.498;2023-12-20T07:02:56;100200;;;2.81;94
68117;BME280;54909;54.464;18.498;2023-12-20T07:06:04;100200;;;2.86;94
68117;BME280;54909;54.464;18.498;2023-12-20T07:09:05;100200;;;2.90;94
68117;BME280;54909;54.464;18.498;2023-12-20T07:12:06;100200;;;2.92;94
68117;BME280;54909;54.464;18.498;2023-12-20T07:15:13;100200;;;2.93;93
68117;BME280;54909;54.464;18.498;2023-12-20T07:18:14;100200;;;2.91;93
68117;BME280;54909;54.464;18.498;2023-12-20T07:21:15;100200;;;2.92;93
68117;BME280;54909;54.464;18.498;2023-12-20T07:24:22;100200;;;2.81;93
68117;BME280;54909;54.464;18.498;2023-12-20T07:27:23;100200;;;2.79;93
68117;BME280;54909;54.464;18.498;2023-12-20T07:30:25;100200;;;2.80;93
68117;BME280;54909;54.464;18.498;2023-12-20T07:33:31;100200;;;2.81;94
68117;BME280;54909;54.464;18.498;2023-12-20T07:36:33;100200;;;2.84;94
68117;BME280;54909;54.464;18.498;2023-12-20T07:39:34;100200;;;2.84;93
68117;BME280;54909;54.464;18.498;2023-12-20T07:42:41;100200;;;2.85;93
68117;BME280;54909;54.464;18.498;2023-12-20T07:45:42;100200;;;2.78;93
68117;BME280;54909;54.464;18.498;2023-12-20T07:48:43;100200;;;2.72;93
68117;BME280;54909;54.464;18.498;2023-12-20T07:51:50;100200;;;2.83;93
68117;BME280;54909;54.464;18.498;2023-12-20T07:54:51;100200;;;2.82;93
68117;BME280;54909;54.464;18.498;2023-12-20T07:57:53;100200;;;2.82;92
68117;BME280;54909;54.464;18.498;2023-12-20T08:00:59;100200;;;2.77;93
68117;BME280;54909;54.464;18.498;2023-12-20T08:04:00;100200;;;2.81;93
68117;BME280;54909;54.464;18.498;2023-12-20T08:07:02;100100;;;2.84;92
68117;BME280;54909;54.464;18.498;2023-12-20T08:10:09;100100;;;2.90;92
68117;BME280;54909;54.464;18.498;2023-12-20T08:13:10;100100;;;2.94;92
68117;BME280;54909;54.464;18.498;2023-12-20T08:16:11;100100;;;2.98;92
68117;BME280;54909;54.464;18.498;2023-12-20T08:19:18;100100;;;3.07;92
68117;BME280;54909;54.464;18.498;2023-12-20T08:22:19;100100;;;3.18;92
68117;BME280;54909;54.464;18.498;2023-12-20T08:25:20;100100;;;3.37;91
68117;BME280;54909;54.464;18.498;2023-12-20T08:28:27;100100;;;3.55;90
68117;BME280;54909;54.464;18.498;2023-12-20T08:31:29;100100;;;3.69;90
68117;BME280;54909;54.464;18.498;2023-12-20T08:34:30;100100;;;3.75;89
68117;BME280;54909;54.464;18.498;2023-12-20T08:37:36;100100;;;3.90;89
68117;BME280;54909;54.464;18.498;2023-12-20T08:40:38;100100;;;4.06;88
68117;BME280;54909;54.464;18.498;2023-12-20T08:43:39;100100;;;4.11;88
68117;BME280;54909;54.464;18.498;2023-12-20T08:46:46;100100;;;4.19;88
68117;BME280;54909;54.464;18.498;2023-12-20T08:49:47;100100;;;4.29;88
68117;BME280;54909;54.464;18.498;2023-12-20T08:52:48;100100;;;4.39;87
68117;BME280;54909;54.464;18.498;2023-12-20T08:55:55;100100;;;4.38;87
68117;BME280;54909;54.464;18.498;2023-12-20T08:58:58;100100;;;4.39;87
68117;BME280;54909;54.464;18.498;2023-12-20T09:01:59;100100;;;4.36;87
68117;BME280;54909;54.464;18.498;2023-12-20T09:05:04;100100;;;4.39;87
68117;BME280;54909;54.464;18.498;2023-12-20T09:08:06;100100;;;4.44;87
68117;BME280;54909;54.464;18.498;2023-12-20T09:11:10;100100;;;4.40;87
68117;BME280;54909;54.464;18.498;2023-12-20T09:14:13;100100;;;4.30;87
68117;BME280;54909;54.464;18.498;2023-12-20T09:17:15;100100;;;4.28;87
68117;BME280;54909;54.464;18.498;2023-12-20T09:20:17;100100;;;4.36;88
68117;BME280;54909;54.464;18.498;2023-12-20T09:23:23;100100;;;4.26;87
68117;BME280;54909;54.464;18.498;2023-12-20T09:26:24;100100;;;4.36;87
68117;BME280;54909;54.464;18.498;2023-12-20T09:29:25;100100;;;4.39;87
68117;BME280;54909;54.464;18.498;2023-12-20T09:32:32;100000;;;4.48;87
68117;BME280;54909;54.464;18.498;2023-12-20T09:35:33;100100;;;4.55;86
68117;BME280;54909;54.464;18.498;2023-12-20T09:38:34;100000;;;4.65;86
68117;BME280;54909;54.464;18.498;2023-12-20T09:41:44;100000;;;4.66;86
68117;BME280;54909;54.464;18.498;2023-12-20T09:44:47;100000;;;4.74;85
68117;BME280;54909;54.464;18.498;2023-12-20T09:47:53;100000;;;4.86;85
68117;BME280;54909;54.464;18.498;2023-12-20T09:50:57;100000;;;4.93;85
68117;BME280;54909;54.464;18.498;2023-12-20T09:53:59;100000;;;4.95;85
68117;BME280;54909;54.464;18.498;2023-12-20T09:57:02;100000;;;4.96;85
68117;BME280;54909;54.464;18.498;2023-12-20T10:00:06;100000;;;5.18;84
68117;BME280;54909;54.464;18.498;2023-12-20T10:03:08;100000;;;5.15;84
68117;BME280;54909;54.464;18.498;2023-12-20T10:19:46;100000;;;4.90;84
68117;BME280;54909;54.464;18.498;2023-12-20T10:22:53;100000;;;4.98;84
68117;BME280;54909;54.464;18.498;2023-12-20T10:25:58;0;;;5.09;85
68117;BME280;54909;54.464;18.498;2023-12-20T10:29:00;100000;;;5.08;84
68117;BME280;54909;54.464;18.498;2023-12-20T10:35:17;0;;;4.99;84
68117;BME280;54909;54.464;18.498;2023-12-20T10:38:20;0;;;5.04;85
68117;BME280;54909;54.464;18.498;2023-12-20T10:41:28;0;;;5.11;84
68117;BME280;54909;54.464;18.498;2023-12-20T10:44:30;0;;;5.08;84
68117;BME280;54909;54.464;18.498;2023-12-20T10:47:32;0;;;5.02;85
68117;BME280;54909;54.464;18.498;2023-12-20T10:50:36;0;;;5.06;85
68117;BME280;54909;54.464;18.498;2023-12-20T10:53:40;0;;;5.08;84
68117;BME280;54909;54.464;18.498;2023-12-20T10:56:43;0;;;5.07;84
68117;BME280;54909;54.464;18.498;2023-12-20T10:59:45;0;;;5.17;85
68117;BME280;54909;54.464;18.498;2023-12-20T11:02:50;0;;;5.16;84
68117;BME280;54909;54.464;18.498;2023-12-20T11:09:13;0;;;5.26;85
68117;BME280;54909;54.464;18.498;2023-12-20T11:12:20;0;;;5.18;85
68117;BME280;54909;54.464;18.498;2023-12-20T11:15:24;0;;;5.34;85
68117;BME280;54909;54.464;18.498;2023-12-20T11:18:32;0;;;5.42;84
68117;BME280;54909;54.464;18.498;2023-12-20T11:21:33;0;;;5.40;85
68117;BME280;54909;54.464;18.498;2023-12-20T11:24:35;0;;;5.41;85
68117;BME280;54909;54.464;18.498;2023-12-20T11:27:42;0;;;5.44;85
68117;BME280;54909;54.464;18.498;2023-12-20T11:30:48;0;;;5.46;84
68117;BME280;54909;54.464;18.498;2023-12-20T11:37:10;0;;;5.35;87
68117;BME280;54909;54.464;18.498;2023-12-20T11:40:14;0;;;5.31;86
68117;BME280;54909;54.464;18.498;2023-12-20T11:46:34;0;;;5.23;87
68117;BME280;54909;54.464;18.498;2023-12-20T11:49:35;0;;;5.34;86
68117;BME280;54909;54.464;18.498;2023-12-20T11:52:37;0;;;5.28;87
68117;BME280;54909;54.464;18.498;2023-12-20T11:55:48;0;;;5.35;86
68117;BME280;54909;54.464;18.498;2023-12-20T11:58:49;0;;;5.33;87
68117;BME280;54909;54.464;18.498;2023-12-20T12:01:51;0;;;5.30;87
68117;BME280;54909;54.464;18.498;2023-12-20T12:04:53;0;;;5.26;87
68117;BME280;54909;54.464;18.498;2023-12-20T12:07:55;0;;;5.26;87
68117;BME280;54909;54.464;18.498;2023-12-20T12:10:56;0;;;5.09;88
68117;BME280;54909;54.464;18.498;2023-12-20T12:14:03;0;;;5.10;88
68117;BME280;54909;54.464;18.498;2023-12-20T12:17:04;0;;;5.20;88
68117;BME280;54909;54.464;18.498;2023-12-20T12:20:09;0;;;5.31;88
68117;BME280;54909;54.464;18.498;2023-12-20T12:23:12;0;;;5.33;88
68117;BME280;54909;54.464;18.498;2023-12-20T12:26:13;0;;;5.18;88
68117;BME280;54909;54.464;18.498;2023-12-20T12:29:15;0;;;5.16;88
68117;BME280;54909;54.464;18.498;2023-12-20T12:32:21;0;;;5.27;89
68117;BME280;54909;54.464;18.498;2023-12-20T12:35:23;0;;;5.18;89
68117;BME280;54909;54.464;18.498;2023-12-20T12:38:24;0;;;5.19;88
68117;BME280;54909;54.464;18.498;2023-12-20T12:41:30;0;;;5.14;89
68117;BME280;54909;54.464;18.498;2023-12-20T12:44:32;0;;;5.18;88
68117;BME280;54909;54.464;18.498;2023-12-20T12:47:34;0;;;5.19;88
68117;BME280;54909;54.464;18.498;2023-12-20T12:50:39;0;;;5.24;88
68117;BME280;54909;54.464;18.498;2023-12-20T12:53:41;0;;;5.35;88
68117;BME280;54909;54.464;18.498;2023-12-20T12:56:43;0;;;5.22;88
68117;BME280;54909;54.464;18.498;2023-12-20T12:59:49;0;;;5.34;89
68117;BME280;54909;54.464;18.498;2023-12-20T13:02:51;0;;;5.19;89
68117;BME280;54909;54.464;18.498;2023-12-20T13:05:52;0;;;5.19;89
68117;BME280;54909;54.464;18.498;2023-12-20T13:08:58;0;;;5.10;89
68117;BME280;54909;54.464;18.498;2023-12-20T13:12:00;0;;;5.15;90
68117;BME280;54909;54.464;18.498;2023-12-20T13:15:05;0;;;5.07;89
68117;BME280;54909;54.464;18.498;2023-12-20T13:18:07;0;;;5.12;89
68117;BME280;54909;54.464;18.498;2023-12-20T13:21:09;0;;;4.95;90
68117;BME280;54909;54.464;18.498;2023-12-20T13:24:10;0;;;5.02;90
68117;BME280;54909;54.464;18.498;2023-12-20T13:27:17;0;;;5.01;89
68117;BME280;54909;54.464;18.498;2023-12-20T13:30:18;0;;;5.11;89
68117;BME280;54909;54.464;18.498;2023-12-20T13:33:19;0;;;5.14;89
68117;BME280;54909;54.464;18.498;2023-12-20T13:36:26;0;;;5.14;89
68117;BME280;54909;54.464;18.498;2023-12-20T13:39:27;0;;;5.17;88
68117;BME280;54909;54.464;18.498;2023-12-20T13:42:28;0;;;5.15;87
68117;BME280;54909;54.464;18.498;2023-12-20T13:45:35;0;;;5.17;87
68117;BME280;54909;54.464;18.498;2023-12-20T13:48:36;0;;;5.18;87
68117;BME280;54909;54.464;18.498;2023-12-20T13:51:38;0;;;5.07;86
68117;BME280;54909;54.464;18.498;2023-12-20T13:54:44;0;;;4.92;87
68117;BME280;54909;54.464;18.498;2023-12-20T13:57:45;0;;;5.02;87
68117;BME280;54909;54.464;18.498;2023-12-20T14:00:49;0;;;5.09;87
68117;BME280;54909;54.464;18.498;2023-12-20T14:03:53;0;;;4.92;87
68117;BME280;54909;54.464;18.498;2023-12-20T14:06:55;0;;;4.92;87
68117;BME280;54909;54.464;18.498;2023-12-20T14:09:56;0;;;4.92;87
68117;BME280;54909;54.464;18.498;2023-12-20T14:13:03;0;;;4.89;88
68117;BME280;54909;54.464;18.498;2023-12-20T14:16:05;0;;;4.99;88
68117;BME280;54909;54.464;18.498;2023-12-20T14:19:07;0;;;4.97;88
68117;BME280;54909;54.464;18.498;2023-12-20T14:22:12;0;;;4.92;87
68117;BME280;54909;54.464;18.498;2023-12-20T14:25:17;0;;;4.90;88
68117;BME280;54909;54.464;18.498;2023-12-20T14:28:19;0;;;4.73;88
68117;BME280;54909;54.464;18.498;2023-12-20T14:31:21;0;;;4.66;89
68117;BME280;54909;54.464;18.498;2023-12-20T14:34:25;0;;;4.62;89
68117;BME280;54909;54.464;18.498;2023-12-20T14:37:27;0;;;4.67;88
68117;BME280;54909;54.464;18.498;2023-12-20T14:40:30;0;;;4.70;88
68117;BME280;54909;54.464;18.498;2023-12-20T14:43:31;0;;;4.75;88
68117;BME280;54909;54.464;18.498;2023-12-20T14:46:32;0;;;4.87;88
68117;BME280;54909;54.464;18.498;2023-12-20T14:49:39;0;;;4.86;88
68117;BME280;54909;54.464;18.498;2023-12-20T14:52:40;0;;;4.83;88
68117;BME280;54909;54.464;18.498;2023-12-20T14:55:42;0;;;4.87;89
68117;BME280;54909;54.464;18.498;2023-12-20T14:58:48;0;;;4.91;89
68117;BME280;54909;54.464;18.498;2023-12-20T15:01:50;0;;;4.89;89
68117;BME280;54909;54.464;18.498;2023-12-20T15:04:52;0;;;4.94;89
68117;BME280;54909;54.464;18.498;2023-12-20T15:07:58;0;;;4.96;90
68117;BME280;54909;54.464;18.498;2023-12-20T15:10:59;0;;;4.88;90
68117;BME280;54909;54.464;18.498;2023-12-20T15:14:00;0;;;4.90;90
68117;BME280;54909;54.464;18.498;2023-12-20T15:17:07;0;;;4.92;91
68117;BME280;54909;54.464;18.498;2023-12-20T15:20:10;0;;;4.88;90
68117;BME280;54909;54.464;18.498;2023-12-20T15:23:11;0;;;4.81;91
68117;BME280;54909;54.464;18.498;2023-12-20T15:26:16;0;;;4.79;91
68117;BME280;54909;54.464;18.498;2023-12-20T15:29:18;0;;;4.91;92
68117;BME280;54909;54.464;18.498;2023-12-20T15:32:19;0;;;4.75;91
68117;BME280;54909;54.464;18.498;2023-12-20T15:35:26;0;;;4.77;91
68117;BME280;54909;54.464;18.498;2023-12-20T15:38:27;0;;;4.76;92
68117;BME280;54909;54.464;18.498;2023-12-20T15:41:29;0;;;4.78;91
68117;BME280;54909;54.464;18.498;2023-12-20T15:44:37;0;;;4.84;91
68117;BME280;54909;54.464;18.498;2023-12-20T15:47:38;0;;;4.81;91
68117;BME280;54909;54.464;18.498;2023-12-20T15:50:39;0;;;4.69;91
68117;BME280;54909;54.464;18.498;2023-12-20T15:53:47;0;;;4.70;93
68117;BME280;54909;54.464;18.498;2023-12-20T15:56:48;0;;;4.59;95
68117;BME280;54909;54.464;18.498;2023-12-20T15:59:49;0;;;4.24;95
68117;BME280;54909;54.464;18.498;2023-12-20T16:02:56;0;;;3.87;95
68117;BME280;54909;54.464;18.498;2023-12-20T16:05:57;0;;;3.74;96
68117;BME280;54909;54.464;18.498;2023-12-20T16:09:02;0;;;3.69;97
68117;BME280;54909;54.464;18.498;2023-12-20T16:12:06;0;;;3.67;97
68117;BME280;54909;54.464;18.498;2023-12-20T16:15:08;0;;;3.60;96
68117;BME280;54909;54.464;18.498;2023-12-20T16:18:09;0;;;3.42;96
68117;BME280;54909;54.464;18.498;2023-12-20T16:21:14;0;;;3.40;96
68117;BME280;54909;54.464;18.498;2023-12-20T16:24:16;0;;;3.31;97
68117;BME280;54909;54.464;18.498;2023-12-20T16:27:17;0;;;3.28;97
68117;BME280;54909;54.464;18.498;2023-12-20T16:30:24;0;;;3.24;97
68117;BME280;54909;54.464;18.498;2023-12-20T16:33:25;0;;;3.13;96
68117;BME280;54909;54.464;18.498;2023-12-20T16:39:38;0;;;3.06;97
68117;BME280;54909;54.464;18.498;2023-12-20T16:42:39;0;;;3.16;96
68117;BME280;54909;54.464;18.498;2023-12-20T16:45:41;0;;;3.22;96
68117;BME280;54909;54.464;18.498;2023-12-20T16:48:42;0;;;3.27;96
68117;BME280;54909;54.464;18.498;2023-12-20T16:51:44;0;;;3.20;96
68117;BME280;54909;54.464;18.498;2023-12-20T16:54:45;0;;;3.17;97
68117;BME280;54909;54.464;18.498;2023-12-20T16:57:52;0;;;3.26;97
68117;BME280;54909;54.464;18.498;2023-12-20T17:00:54;0;;;3.19;96
68117;BME280;54909;54.464;18.498;2023-12-20T17:03:55;0;;;3.11;97
68117;BME280;54909;54.464;18.498;2023-12-20T17:07:01;0;;;3.23;97
68117;BME280;54909;54.464;18.498;2023-12-20T17:10:03;0;;;3.31;96
68117;BME280;54909;54.464;18.498;2023-12-20T17:13:05;0;;;3.33;96
68117;BME280;54909;54.464;18.498;2023-12-20T17:16:11;0;;;3.39;96
68117;BME280;54909;54.464;18.498;2023-12-20T17:19:12;0;;;3.41;96
68117;BME280;54909;54.464;18.498;2023-12-20T17:22:13;0;;;3.46;96
68117;BME280;54909;54.464;18.498;2023-12-20T17:25:20;0;;;3.43;95
68117;BME280;54909;54.464;18.498;2023-12-20T17:28:23;0;;;3.39;95
68117;BME280;54909;54.464;18.498;2023-12-20T17:31:24;0;;;3.44;95
68117;BME280;54909;54.464;18.498;2023-12-20T17:34:29;0;;;3.42;95
68117;BME280;54909;54.464;18.498;2023-12-20T17:37:30;0;;;3.29;94
68117;BME280;54909;54.464;18.498;2023-12-20T17:40:32;0;;;3.38;94
68117;BME280;54909;54.464;18.498;2023-12-20T17:43:38;0;;;3.33;94
68117;BME280;54909;54.464;18.498;2023-12-20T17:46:40;0;;;3.19;94
68117;BME280;54909;54.464;18.498;2023-12-20T17:49:41;0;;;3.10;94
68117;BME280;54909;54.464;18.498;2023-12-20T17:52:48;0;;;3.03;94
68117;BME280;54909;54.464;18.498;2023-12-20T17:55:58;0;;;3.05;94
68117;BME280;54909;54.464;18.498;2023-12-20T17:58:56;0;;;3.03;95
68117;BME280;54909;54.464;18.498;2023-12-20T18:02:00;0;;;3.06;95
68117;BME280;54909;54.464;18.498;2023-12-20T18:05:03;0;;;3.02;94
68117;BME280;54909;54.464;18.498;2023-12-20T18:08:05;0;;;2.86;95
68117;BME280;54909;54.464;18.498;2023-12-20T18:11:06;0;;;2.81;96
68117;BME280;54909;54.464;18.498;2023-12-20T18:14:07;0;;;2.77;96
68117;BME280;54909;54.464;18.498;2023-12-20T18:17:11;0;;;2.67;96
68117;BME280;54909;54.464;18.498;2023-12-20T18:20:15;0;;;2.60;96
68117;BME280;54909;54.464;18.498;2023-12-20T18:23:17;0;;;2.65;96